Aeroporto :
LOGIN :

Iscrizione | Disclaimer

   EN    FR    IT 

 










Sommario :    VFR   VFR Marginale   IFR   IFR Intensivo   IFR Molto Intensivo
Visibilità : 
Base nubi : 
>= 8 km
>= 3000ft
5 / 8 km
1000 / 3000 ft
1500m / 5 km
500 / 1000 ft
800 / 1500m
200 / 500 ft
< 800m
< 200 ft
Simboli :   Temporali  Nebbia  Neve Forte  Precipitazioni Forti  Vento > 20 kt
SIGMETs :   Varie  Temporali  Ghiacco  Turbolenza  Onda orograficha  Ceneri Vulcaniche






- Altitudine del aeroporto : 157 ft
- Codice IATA : SXF


EDDB - Berlin Schönefeld

ULTIMO METAR :
  • 020550Z AUTO 18007KT 4300 BR SCT006 BKN033 OVC039 08/08 Q1006 TEMPO BKN006

METARs OBSOLETI :
  • 020520Z AUTO 17006KT 150V210 5000 BR SCT007 BKN017 BKN023 08/08 Q1006 TEMPO 4000 -DZ BKN007
  • 020450Z AUTO 13004KT 4400 -DZ BR FEW018 BKN027 BKN045 08/08 Q1005 NOSIG
  • 020420Z AUTO 14005KT 4800 BR BKN019 BKN024 BKN043 08/08 Q1005 NOSIG
  • 012050Z AUTO 12003KT 080V170 7000 NSC 07/06 Q1007 NOSIG
  • 020350Z AUTO 13005KT 5000 BR BKN020 08/08 Q1005 NOSIG
  • 020320Z AUTO 13005KT 5000 BR OVC019 08/08 Q1005 NOSIG
  • 020250Z AUTO 12006KT 4400 BR BKN022 BKN040 08/08 Q1005 NOSIG
  • 020220Z AUTO 12005KT 4000 -RA BR FEW025 BKN037 08/07 Q1005 TEMPO 2500 -RADZ BR
  • 020150Z AUTO 09004KT 3800 -DZ BR FEW035 SCT042 07/07 Q1005 TEMPO 2500 -RADZ BR
  • 020120Z AUTO 08004KT 4400 -RADZ BR FEW035 BKN045 07/06 Q1006 NOSIG

TAF TAF EDDB
Valido dal 02 a 06 ore il 03 a 06 ore UTC


020500Z 0206/0306 17005KT 6000 BKN020
TEMPO 0206/0209 3500 -RADZ BR
PROB30
TEMPO 0206/0208 BKN009
BECMG 0215/0218 09006KT
PROB30
TEMPO 0303/0306 4000 BR



MetMap, La meteo Aeronautica in un colpo d'occhio ! - Copyright ORBIFLY Dicembre 2007 - Disclaimer

ORBIFLY MET'MAP TEAM :

Programmazione e sviluppo : Alexandra Zaïnal
Concezione : Baudouin d'Aumeries
Supporto tecnico e logistico : Manuel Goepfert
Aiuto : Marc-Olivier Méhu
Aiuto per la traduzione : Arnaldo La Scala




FONTI E CREDITI :

   NOAA